createdAt,value
2023-05-03T00:00:24.682Z,72.9
2023-05-03T00:12:24.515Z,72.4
2023-05-03T00:24:24.527Z,79.9
2023-05-03T00:36:24.443Z,78.7
2023-05-03T00:48:24.990Z,77.9
2023-05-03T01:00:24.525Z,77.4
2023-05-03T01:12:24.417Z,76.9
2023-05-03T01:24:24.523Z,76.2
2023-05-03T01:36:24.868Z,77.0
2023-05-03T01:48:24.535Z,81.9
2023-05-03T02:00:24.472Z,82.6
2023-05-03T02:12:24.426Z,86.7
2023-05-03T02:24:24.430Z,87.9
2023-05-03T02:36:24.528Z,85.4
2023-05-03T02:48:24.512Z,85.5
2023-05-03T03:00:24.514Z,87.1
2023-05-03T03:12:24.513Z,87.7
2023-05-03T03:24:24.470Z,87.1
2023-05-03T03:36:24.532Z,89.9
2023-05-03T03:48:24.561Z,90.2
2023-05-03T04:00:24.786Z,90.7
2023-05-03T04:12:24.423Z,91.8
2023-05-03T04:24:24.425Z,91.3
2023-05-03T04:36:24.552Z,91.1
2023-05-03T04:48:24.428Z,87.4
2023-05-03T05:00:24.499Z,90.3
2023-05-03T05:12:24.430Z,91.1
2023-05-03T05:24:24.518Z,91.0
2023-05-03T05:36:24.531Z,89.1
2023-05-03T05:48:24.421Z,83.5
2023-05-03T06:00:24.461Z,76.1
2023-05-03T06:12:24.541Z,69.4
2023-05-03T06:24:24.546Z,66.5
2023-05-03T06:36:24.507Z,64.7
2023-05-03T06:48:24.620Z,63.3
2023-05-03T07:00:24.413Z,61.3
2023-05-03T07:12:24.438Z,62.0
2023-05-03T07:24:24.524Z,58.8
2023-05-03T07:36:24.546Z,58.2
2023-05-03T07:48:24.534Z,56.6
2023-05-03T08:00:24.482Z,57.1
2023-05-03T08:12:24.433Z,55.4
2023-05-03T08:24:24.509Z,52.9
2023-05-03T08:36:24.433Z,53.6
2023-05-03T08:48:24.436Z,55.8
2023-05-03T09:00:24.426Z,52.8
2023-05-03T09:12:24.548Z,53.6
2023-05-03T09:24:24.542Z,49.8
2023-05-03T09:36:24.435Z,48.3
2023-05-03T09:48:24.412Z,51.2
2023-05-03T10:00:24.529Z,46.5
2023-05-03T10:12:24.514Z,47.4
2023-05-03T10:24:24.485Z,49.3
2023-05-03T10:36:25.998Z,50.4
2023-05-03T10:48:24.529Z,47.2
2023-05-03T11:00:24.426Z,47.0
2023-05-03T11:12:24.461Z,47.5
2023-05-03T11:24:24.500Z,41.6
2023-05-03T11:36:24.523Z,42.1
2023-05-03T11:48:24.524Z,42.2
2023-05-03T12:00:24.501Z,42.0
2023-05-03T12:12:29.538Z,38.7
2023-05-03T12:24:24.866Z,38.8
2023-05-03T12:36:26.241Z,38.0
2023-05-03T12:48:24.668Z,36.9
2023-05-03T13:00:25.708Z,38.6
2023-05-03T13:12:24.422Z,33.5
2023-05-03T13:24:24.531Z,35.1
2023-05-03T13:36:24.450Z,30.3
2023-05-03T13:48:24.468Z,33.6
2023-05-03T14:00:24.421Z,34.1
2023-05-03T14:12:24.478Z,33.9
2023-05-03T14:24:24.442Z,36.2
2023-05-03T14:36:24.457Z,35.1
2023-05-03T14:48:24.449Z,33.2
2023-05-03T15:00:24.521Z,35.7
2023-05-03T15:12:24.537Z,31.4
2023-05-03T15:24:24.562Z,32.7
2023-05-03T15:36:24.528Z,35.1
2023-05-03T15:48:24.463Z,33.8
2023-05-03T16:00:24.540Z,34.8
2023-05-03T16:12:24.558Z,32.7
2023-05-03T16:24:24.547Z,33.9
2023-05-03T16:36:24.541Z,31.9
2023-05-03T16:48:24.537Z,35.6
2023-05-03T17:00:24.413Z,36.4
2023-05-03T17:12:24.517Z,36.5
2023-05-03T17:24:24.521Z,39.2
2023-05-03T17:36:24.421Z,38.1
2023-05-03T17:48:24.417Z,42.3
2023-05-03T18:00:24.501Z,43.7
2023-05-03T18:12:24.483Z,43.5
2023-05-03T18:24:24.508Z,45.4
2023-05-03T18:36:24.533Z,46.3
2023-05-03T18:48:24.490Z,49.5
2023-05-03T19:00:24.509Z,51.6
2023-05-03T19:12:24.531Z,52.3
2023-05-03T19:24:24.434Z,54.0
2023-05-03T19:36:24.522Z,52.2
2023-05-03T19:48:24.493Z,51.0
2023-05-03T20:00:24.556Z,51.5
2023-05-03T20:12:24.516Z,50.2
2023-05-03T20:24:24.556Z,53.0
2023-05-03T20:36:24.545Z,54.8
2023-05-03T20:48:24.451Z,56.4
2023-05-03T21:00:24.549Z,58.8
2023-05-03T21:12:24.465Z,62.4
2023-05-03T21:24:24.529Z,61.8
2023-05-03T21:36:24.519Z,62.5
2023-05-03T21:48:24.531Z,62.8
2023-05-03T22:00:24.421Z,63.0
2023-05-03T22:12:25.177Z,62.7
2023-05-03T22:24:24.427Z,63.6
2023-05-03T22:36:24.526Z,63.3
2023-05-03T22:48:24.525Z,65.5
2023-05-03T23:00:24.422Z,66.2
2023-05-03T23:12:24.476Z,66.1
2023-05-03T23:24:24.529Z,65.1
2023-05-03T23:36:24.554Z,66.1
2023-05-03T23:48:24.434Z,66.0
